Time;durP1;ratioP1;P1;durP2;ratioP2;P2;SDS_P1;SDS_P2;PMS_P1;PMS_P2;Temp;Humidity;BMP_temperature;BMP_pressure;BME280_temperature;BME280_humidity;BME280_pressure;Samples;Min_cycle;Max_cycle;Signal;HPM_P1;HPM_P2
2022/07/12 00:06:02;;;;;;;4.15;0.93;;;;;;;22.76;47.05;101274.06;7395550;19;20015;-59
2022/07/12 00:12:06;;;;;;;4.63;1.15;;;;;;;22.71;47.64;101277.34;7396948;19;20007;-59
2022/07/12 00:14:33;;;;;;;4.22;1.20;;;;;;;22.63;48.02;101282.25;7388961;19;20018;-60
2022/07/12 00:17:02;;;;;;;1.17;1.00;;;;;;;22.59;48.39;101274.97;7398709;19;20014;-59
2022/07/12 00:30:18;;;;;;;1.05;0.85;;;;;;;22.52;48.62;101284.28;7393463;19;20014;-60
2022/07/12 00:33:06;;;;;;;3.10;1.15;;;;;;;22.45;48.72;101276.66;7397568;19;20447;-60
2022/07/12 00:35:54;;;;;;;2.75;1.48;;;;;;;22.41;48.93;101269.44;7397092;19;20472;-60
2022/07/12 00:38:42;;;;;;;1.52;0.93;;;;;;;22.39;48.99;101269.06;7399539;19;20034;-59
2022/07/12 00:41:30;;;;;;;1.88;1.20;;;;;;;22.38;49.36;101270.28;7396928;19;20014;-59
2022/07/12 00:43:57;;;;;;;3.53;1.98;;;;;;;22.37;49.36;101269.47;7393859;19;20014;-60
2022/07/12 00:50:07;;;;;;;1.63;1.20;;;;;;;22.32;49.94;101267.09;7395093;19;20007;-59
2022/07/12 00:52:36;;;;;;;2.45;1.00;;;;;;;22.36;49.60;101273.53;7396109;19;20018;-59
2022/07/12 00:55:08;;;;;;;1.80;1.27;;;;;;;22.32;49.71;101278.38;7394239;19;20014;-60
2022/07/12 00:57:37;;;;;;;2.55;1.17;;;;;;;22.32;49.76;101284.00;7396224;19;20337;-60
2022/07/12 01:00:07;;;;;;;3.80;1.30;;;;;;;22.30;50.02;101277.97;7395865;19;20018;-61
2022/07/12 01:02:35;;;;;;;3.92;1.13;;;;;;;22.27;50.01;101270.34;7394968;19;20040;-60
2022/07/12 01:05:07;;;;;;;1.77;1.10;;;;;;;22.23;50.16;101274.41;7391388;19;20010;-60
2022/07/12 01:07:36;;;;;;;1.65;1.48;;;;;;;22.25;50.13;101286.06;7397776;19;20007;-60
2022/07/12 01:10:06;;;;;;;2.42;1.45;;;;;;;22.25;50.51;101278.41;7396154;19;20011;-59
2022/07/12 01:12:34;;;;;;;1.05;0.93;;;;;;;22.21;50.40;101288.91;7397314;19;20011;-59
2022/07/12 01:15:05;;;;;;;3.67;1.20;;;;;;;22.19;50.06;101277.25;7390893;19;20337;-59
2022/07/12 01:17:32;;;;;;;4.37;1.10;;;;;;;22.21;50.48;101294.53;7400950;19;20014;-61
2022/07/12 01:20:05;;;;;;;8.82;1.60;;;;;;;22.18;50.26;101283.31;7403534;19;20474;-59
2022/07/12 01:22:40;;;;;;;2.65;1.05;;;;;;;22.17;50.19;101292.97;7401153;19;20021;-60
2022/07/12 01:29:10;;;;;;;1.73;0.80;;;;;;;22.10;51.06;101291.00;7399694;19;20014;-59
2022/07/12 01:31:37;;;;;;;1.83;1.35;;;;;;;22.08;50.77;101282.13;7404431;19;20034;-59
2022/07/12 01:34:06;;;;;;;1.88;1.10;;;;;;;22.07;51.12;101280.53;7402998;19;20014;-60
2022/07/12 01:39:59;;;;;;;3.63;1.30;;;;;;;22.07;51.04;101274.91;7398880;19;20002;-59
2022/07/12 01:42:28;;;;;;;3.70;1.58;;;;;;;22.05;51.16;101285.78;7365655;19;20018;-61
2022/07/12 01:44:57;;;;;;;3.83;1.00;;;;;;;22.07;51.32;101291.81;7350473;19;21277;-61
2022/07/12 01:47:44;;;;;;;3.08;0.85;;;;;;;22.07;51.09;101283.34;7352887;19;20035;-62
2022/07/12 01:50:33;;;;;;;0.90;0.88;;;;;;;22.07;51.42;101289.00;7350980;19;20093;-60
2022/07/12 01:53:20;;;;;;;2.45;1.10;;;;;;;22.03;51.45;101299.47;7348182;19;20479;-60
2022/07/12 01:59:55;;;;;;;2.30;1.13;;;;;;;21.98;52.55;101302.72;7350048;19;20162;-60
2022/07/12 02:02:45;;;;;;;3.63;0.93;;;;;;;21.86;54.04;101306.00;7348099;19;20014;-60
2022/07/12 02:05:34;;;;;;;2.67;1.33;;;;;;;21.84;54.49;101334.56;7347175;19;20082;-60
2022/07/12 02:08:22;;;;;;;1.38;1.27;;;;;;;21.81;54.49;101328.94;7351297;19;20651;-61
2022/07/12 02:11:10;;;;;;;2.15;1.55;;;;;;;21.77;55.23;101336.59;7348657;19;20039;-60
2022/07/12 02:13:58;;;;;;;2.00;1.42;;;;;;;21.70;55.81;101328.19;7352607;19;20019;-61
2022/07/12 02:16:46;;;;;;;4.05;1.48;;;;;;;21.56;56.16;101323.38;7349956;19;20022;-62
2022/07/12 02:19:33;;;;;;;2.25;1.70;;;;;;;21.50;56.75;101330.63;7350978;19;20448;-60
2022/07/12 02:22:21;;;;;;;2.03;1.60;;;;;;;21.52;56.65;101330.25;7351143;19;20043;-62
2022/07/12 02:25:09;;;;;;;3.83;1.40;;;;;;;21.45;57.14;101318.97;7349849;19;20017;-62
2022/07/12 02:27:57;;;;;;;1.70;1.50;;;;;;;21.32;57.73;101323.41;7351718;19;20014;-60
2022/07/12 02:30:46;;;;;;;1.92;1.60;;;;;;;21.22;57.79;101317.41;7348579;19;20074;-61
2022/07/12 02:33:35;;;;;;;1.98;1.52;;;;;;;21.21;58.48;101306.53;7351698;19;20041;-61
2022/07/12 02:36:23;;;;;;;3.53;2.38;;;;;;;21.15;58.76;101300.50;7351018;19;20421;-61
2022/07/12 02:39:11;;;;;;;2.45;1.63;;;;;;;21.09;59.13;101319.03;7350581;19;20484;-61
2022/07/12 02:41:59;;;;;;;1.88;1.73;;;;;;;21.08;59.75;101316.59;7349194;19;20656;-61
2022/07/12 02:44:47;;;;;;;2.90;1.55;;;;;;;21.11;59.96;101310.97;7349754;19;21280;-61
2022/07/12 02:47:39;;;;;;;3.65;1.40;;;;;;;21.02;60.41;101318.97;7349500;19;20019;-61
2022/07/12 02:50:27;;;;;;;;;;;;;;;20.92;60.59;101325.41;7351270;19;20119;-61
2022/07/12 02:53:15;;;;;;;1.80;1.50;;;;;;;20.96;60.47;101314.97;7350522;19;19926;-61
2022/07/12 02:56:03;;;;;;;3.40;1.88;;;;;;;20.94;61.22;101291.25;7350655;19;20023;-61
2022/07/12 02:58:51;;;;;;;2.30;1.52;;;;;;;20.88;61.97;101288.03;7349934;19;20035;-61
2022/07/12 03:01:39;;;;;;;2.75;1.85;;;;;;;20.79;62.64;101304.50;7349526;19;20375;-60
2022/07/12 03:04:27;;;;;;;3.10;1.60;;;;;;;20.73;62.95;101322.19;7349402;19;21598;-61
2022/07/12 03:07:15;;;;;;;2.28;1.67;;;;;;;20.74;62.90;101316.16;7349379;19;20077;-61
2022/07/12 03:10:04;;;;;;;2.33;1.63;;;;;;;20.78;63.06;101308.53;7350528;19;20109;-61
2022/07/12 03:12:52;;;;;;;2.05;1.40;;;;;;;20.74;63.37;101324.59;7346916;19;20395;-60
2022/07/12 03:15:21;;;;;;;2.22;1.60;;;;;;;20.80;63.56;101325.81;7348213;19;20022;-62
2022/07/12 03:17:48;;;;;;;1.50;1.40;;;;;;;20.81;63.63;101318.97;7348392;19;20025;-61
2022/07/12 03:20:16;;;;;;;3.05;1.90;;;;;;;20.82;64.01;101326.22;7350828;19;20041;-61
2022/07/12 03:22:46;;;;;;;2.22;1.58;;;;;;;20.83;64.13;101336.28;7347885;19;20081;-61
2022/07/12 03:25:14;;;;;;;3.83;2.15;;;;;;;20.85;63.77;101339.50;7345709;19;20049;-61
2022/07/12 03:27:42;;;;;;;4.00;1.70;;;;;;;20.86;63.68;101338.31;7350010;19;20073;-61
2022/07/12 03:30:11;;;;;;;3.28;1.70;;;;;;;20.83;63.85;101341.91;7349151;19;20018;-61
2022/07/12 03:32:40;;;;;;;6.10;2.53;;;;;;;20.81;63.43;101335.84;7383752;19;20011;-60
2022/07/12 03:35:08;;;;;;;7.88;2.97;;;;;;;20.79;63.38;101332.66;7397312;19;20467;-60
2022/07/12 03:37:46;;;;;;;6.38;4.22;;;;;;;20.75;64.55;101328.22;7398405;19;20025;-60
2022/07/12 03:40:15;;;;;;;6.35;2.83;;;;;;;20.74;63.71;101318.16;7393971;19;20464;-60
2022/07/12 03:42:43;;;;;;;5.05;2.83;;;;;;;20.69;64.00;101322.19;7395631;19;20014;-59
2022/07/12 03:45:12;;;;;;;5.20;2.88;;;;;;;20.65;64.81;101330.63;7394742;19;20022;-59
2022/07/12 03:47:40;;;;;;;5.82;2.60;;;;;;;20.62;64.68;101325.78;7399525;19;20011;-59
2022/07/12 03:50:13;;;;;;;4.57;3.25;;;;;;;20.57;65.56;101326.19;7398262;19;20086;-59
2022/07/12 03:52:42;;;;;;;4.07;2.75;;;;;;;20.53;65.15;101331.00;7396183;19;20010;-59
2022/07/12 03:55:11;;;;;;;6.43;2.63;;;;;;;20.52;65.48;101322.94;7398247;19;20021;-60
2022/07/12 03:57:40;;;;;;;2.58;2.33;;;;;;;20.49;65.88;101312.53;7398298;19;20368;-60
2022/07/12 04:00:13;;;;;;;4.60;2.83;;;;;;;20.50;66.03;101316.91;7396508;19;20014;-60
2022/07/12 04:02:42;;;;;;;5.10;2.58;;;;;;;20.45;66.28;101325.75;7396818;19;20349;-59
2022/07/12 04:05:11;;;;;;;3.72;2.60;;;;;;;20.38;66.64;101317.31;7392788;19;20018;-60
2022/07/12 04:11:05;;;;;;;5.07;2.40;;;;;;;20.23;67.52;101312.78;7397331;19;20010;-59
2022/07/12 04:20:40;;;;;;;5.57;2.38;;;;;;;20.13;67.88;101291.09;7395726;19;20010;-59
2022/07/12 04:23:11;;;;;;;5.50;2.58;;;;;;;20.16;68.02;101293.91;7394348;19;20006;-59
2022/07/12 04:25:38;;;;;;;6.80;3.72;;;;;;;20.18;67.46;101296.31;7396422;19;20415;-59
2022/07/12 04:28:06;;;;;;;6.80;4.18;;;;;;;20.12;67.92;101298.72;7397650;19;20011;-58
2022/07/12 04:30:33;;;;;;;7.90;2.90;;;;;;;20.11;67.98;101293.50;7397952;19;20010;-59
2022/07/12 04:33:21;;;;;;;6.53;3.03;;;;;;;20.10;67.90;101289.06;7393504;19;20006;-59
2022/07/12 04:36:09;;;;;;;6.88;3.67;;;;;;;20.09;67.90;101268.59;7395090;19;20011;-59
2022/07/12 04:38:57;;;;;;;4.93;2.53;;;;;;;20.11;67.93;101263.38;7396725;19;20003;-60
2022/07/12 04:41:44;;;;;;;5.25;2.60;;;;;;;20.14;67.57;101258.97;7398548;19;20326;-60
2022/07/12 04:44:32;;;;;;;5.95;2.67;;;;;;;20.13;68.24;101260.16;7397254;19;20472;-59
2022/07/12 04:47:20;;;;;;;4.95;3.78;;;;;;;20.13;68.34;101254.53;7393005;19;21017;-59
2022/07/12 04:50:08;;;;;;;4.50;2.40;;;;;;;20.13;68.18;101260.16;7396924;19;20011;-60
2022/07/12 04:52:56;;;;;;;2.40;2.20;;;;;;;20.13;68.21;101260.16;7392114;19;20108;-59
2022/07/12 04:55:43;;;;;;;5.53;2.30;;;;;;;20.11;68.56;101257.75;7396331;19;20034;-59
2022/07/12 04:58:31;;;;;;;4.53;3.05;;;;;;;20.12;68.79;101256.53;7391638;19;20006;-59
2022/07/12 05:01:19;;;;;;;4.70;2.28;;;;;;;20.14;68.56;101251.34;7394874;19;20010;-59
2022/07/12 05:04:07;;;;;;;2.97;2.50;;;;;;;20.11;68.86;101254.94;7395656;19;20017;-59
2022/07/12 05:06:55;;;;;;;3.53;2.40;;;;;;;20.11;68.92;101242.88;7395115;19;20027;-59
2022/07/12 05:09:43;;;;;;;5.10;2.92;;;;;;;20.10;69.21;101250.50;7398294;19;20091;-60
2022/07/12 05:12:31;;;;;;;3.30;2.80;;;;;;;20.11;69.26;101260.56;7391096;19;20010;-61
2022/07/12 05:15:19;;;;;;;8.40;2.60;;;;;;;20.11;69.01;101254.13;7391030;19;20014;-59
2022/07/12 05:21:34;;;;;;;2.47;2.28;;;;;;;20.07;69.27;101275.81;7398760;19;20505;-59
2022/07/12 05:24:03;;;;;;;3.15;2.25;;;;;;;20.07;69.11;101284.25;7391518;19;20364;-59
2022/07/12 05:29:55;;;;;;;3.88;2.60;;;;;;;20.04;69.39;101283.81;7394568;19;20011;-61
2022/07/12 05:39:23;;;;;;;3.88;2.35;;;;;;;20.09;69.65;101301.53;7391268;19;20023;-62
2022/07/12 05:41:51;;;;;;;2.40;2.20;;;;;;;20.12;69.74;101295.91;7396209;19;20018;-62
2022/07/12 05:44:19;;;;;;;2.70;2.50;;;;;;;20.13;70.02;101294.69;7389430;19;20018;-62
2022/07/12 05:50:47;;;;;;;3.65;2.30;;;;;;;20.10;70.25;101287.06;7396714;19;20034;-61
2022/07/12 05:53:34;;;;;;;4.35;3.60;;;;;;;20.12;69.74;101298.72;7392020;19;20552;-62
2022/07/12 06:00:23;;;;;;;2.65;2.30;;;;;;;20.14;69.20;101301.13;7394913;19;20024;-62
2022/07/12 06:03:11;;;;;;;3.25;2.30;;;;;;;20.11;69.46;101302.75;7394066;19;20032;-61
2022/07/12 06:05:59;;;;;;;2.30;1.95;;;;;;;20.14;68.76;101318.00;7403056;19;20077;-62
2022/07/12 06:08:47;;;;;;;3.72;2.03;;;;;;;20.13;68.74;101313.56;7400349;19;20010;-63
2022/07/12 06:11:35;;;;;;;2.50;2.13;;;;;;;20.16;68.37;101322.03;7401917;19;20013;-61
2022/07/12 06:14:23;;;;;;;3.65;2.30;;;;;;;20.15;68.36;101328.84;7400501;19;20495;-62
2022/07/12 06:20:36;;;;;;;3.25;1.85;;;;;;;20.20;67.70;101350.16;7398312;19;20374;-62
2022/07/12 06:26:49;;;;;;;2.30;2.10;;;;;;;20.25;67.96;101347.00;7399450;19;20010;-61
2022/07/12 06:29:17;;;;;;;3.20;2.25;;;;;;;20.26;67.89;101354.22;7403428;19;20006;-62
2022/07/12 06:35:34;;;;;;;3.28;2.28;;;;;;;20.26;67.75;101354.22;7403284;19;20043;-62
2022/07/12 06:38:02;;;;;;;3.35;2.10;;;;;;;20.26;67.32;101351.41;7399174;19;20014;-61
2022/07/12 06:40:29;;;;;;;3.38;1.95;;;;;;;20.23;67.47;101340.91;7399476;19;20007;-62
2022/07/12 06:42:57;;;;;;;5.18;2.13;;;;;;;20.15;67.29;101342.91;7397264;19;20033;-62
2022/07/12 06:45:25;;;;;;;3.08;1.70;;;;;;;20.14;66.56;101340.50;7400461;19;20011;-62
2022/07/12 06:47:53;;;;;;;3.33;1.88;;;;;;;20.14;66.32;101343.31;7400795;19;20021;-62
2022/07/12 06:53:45;;;;;;;2.55;2.28;;;;;;;20.11;66.24;101335.66;7395058;19;20010;-63
2022/07/12 06:56:13;;;;;;;3.42;1.98;;;;;;;20.11;66.12;101341.28;7400445;19;20012;-64
2022/07/12 06:58:40;;;;;;;2.55;1.60;;;;;;;20.15;66.24;101345.72;7400266;19;20352;-63
2022/07/12 07:01:08;;;;;;;3.97;2.20;;;;;;;20.19;66.36;101335.31;7398814;19;20048;-63
2022/07/12 07:03:35;;;;;;;4.28;2.00;;;;;;;20.20;65.82;101336.09;7398421;19;20441;-64
2022/07/12 07:06:03;;;;;;;3.95;2.10;;;;;;;20.22;65.96;101336.50;7398908;19;20018;-63
2022/07/12 07:08:31;;;;;;;6.15;2.00;;;;;;;20.19;65.90;101343.72;7398790;19;20014;-64
2022/07/12 07:10:58;;;;;;;1.98;1.50;;;;;;;20.15;65.72;101330.88;7398324;19;20086;-64
2022/07/12 07:21:29;;;;;;;4.05;1.60;;;;;;;20.09;65.79;101338.06;7396057;19;20070;-64
2022/07/12 07:28:02;;;;;;;4.85;1.98;;;;;;;20.09;65.83;101330.44;7398550;19;20006;-63
2022/07/12 07:40:06;;;;;;;2.25;2.05;;;;;;;20.06;66.44;101334.03;7391720;19;20007;-63
2022/07/12 07:42:33;;;;;;;3.80;2.67;;;;;;;20.03;66.86;101335.63;7399666;19;20476;-63
2022/07/12 07:52:23;;;;;;;2.38;2.00;;;;;;;20.10;67.74;101329.22;7397429;19;20027;-64
2022/07/12 07:55:10;;;;;;;3.03;2.15;;;;;;;20.15;67.19;101331.66;7399187;19;20014;-62
2022/07/12 07:58:00;;;;;;;4.40;2.70;;;;;;;20.18;67.57;101333.69;7395091;19;20010;-63
2022/07/12 08:00:52;;;;;;;2.40;1.67;;;;;;;20.25;67.73;101330.94;7397842;19;20034;-62
2022/07/12 08:03:39;;;;;;;2.67;2.10;;;;;;;20.33;67.43;101340.19;7397131;19;20460;-63
2022/07/12 08:09:58;;;;;;;3.80;2.00;;;;;;;20.48;67.86;101344.66;7399498;19;20015;-62
2022/07/12 08:13:07;;;;;;;4.25;2.03;;;;;;;20.52;67.75;101335.00;7395798;19;20007;-61
2022/07/12 08:15:35;;;;;;;2.80;1.90;;;;;;;20.56;67.21;101335.03;7399253;19;20073;-61
2022/07/12 08:21:34;;;;;;;2.30;2.08;;;;;;;20.58;67.33;101338.25;7398379;19;20015;-61
2022/07/12 08:24:02;;;;;;;4.25;2.50;;;;;;;20.63;67.33;101355.53;7395500;19;20471;-62
2022/07/12 08:26:30;;;;;;;4.80;2.33;;;;;;;20.68;67.07;101348.69;7394315;19;20010;-62
2022/07/12 08:32:35;;;;;;;3.33;1.88;;;;;;;20.75;66.82;101345.13;7394898;19;20018;-63
2022/07/12 08:35:03;;;;;;;5.32;2.08;;;;;;;20.75;66.61;101348.72;7399335;19;20379;-62
2022/07/12 08:37:31;;;;;;;2.35;1.65;;;;;;;20.79;66.88;101363.59;7396792;19;20018;-63
2022/07/12 08:39:58;;;;;;;8.43;2.78;;;;;;;20.82;66.99;101356.38;7398354;19;20468;-62
2022/07/12 08:42:26;;;;;;;8.93;3.95;;;;;;;20.81;67.18;101364.00;7394106;19;20384;-62
2022/07/12 08:44:55;;;;;;;2.63;1.80;;;;;;;20.83;67.11;101370.06;7395102;19;20036;-62
2022/07/12 08:47:23;;;;;;;5.18;2.22;;;;;;;20.84;66.89;101368.84;7398504;19;20036;-62
2022/07/12 08:50:13;;;;;;;5.60;2.03;;;;;;;20.86;66.48;101371.25;7399394;19;20092;-63
2022/07/12 08:56:04;;;;;;;2.63;2.00;;;;;;;20.94;66.23;101368.03;7395129;19;20464;-59
2022/07/12 08:58:31;;;;;;;3.03;1.98;;;;;;;20.97;66.43;101378.50;7397796;19;20006;-62
2022/07/12 09:01:00;;;;;;;2.00;1.50;;;;;;;21.00;65.95;101365.63;7398899;19;20044;-63
2022/07/12 09:03:28;;;;;;;3.58;1.98;;;;;;;21.01;65.49;101379.31;7396247;19;20499;-62
2022/07/12 09:05:58;;;;;;;1.45;1.35;;;;;;;21.01;65.34;101381.31;7394683;19;20011;-62
2022/07/12 09:08:30;;;;;;;4.78;1.33;;;;;;;21.02;65.67;101377.31;7392460;19;20010;-62
2022/07/12 09:11:03;;;;;;;4.70;1.80;;;;;;;21.03;65.31;101382.53;7396220;19;20014;-63
2022/07/12 09:13:47;;;;;;;3.42;1.40;;;;;;;21.08;65.10;101381.34;7395561;19;20011;-62
2022/07/12 09:16:17;;;;;;;5.55;1.58;;;;;;;21.11;65.20;101377.75;7394280;19;20034;-62
2022/07/12 09:25:43;;;;;;;2.72;1.70;;;;;;;21.08;64.65;101365.28;7394674;19;20022;-62
2022/07/12 09:28:31;;;;;;;5.07;1.90;;;;;;;21.03;64.96;101362.81;7393691;19;20007;-62
2022/07/12 09:42:18;;;;;;;1.80;1.70;;;;;;;20.84;65.52;101380.09;7394763;19;20006;-62
2022/07/12 09:44:53;;;;;;;3.15;1.85;;;;;;;20.76;65.59;101378.47;7400255;19;20011;-64
2022/07/12 09:51:04;;;;;;;8.25;2.65;;;;;;;20.64;66.01;101387.28;7398084;19;20010;-62
2022/07/12 09:57:03;;;;;;;2.80;1.40;;;;;;;20.62;66.01;101387.69;7396294;19;20025;-63
2022/07/12 09:59:34;;;;;;;4.40;1.65;;;;;;;20.69;65.86;101395.34;7397856;19;20484;-62
2022/07/12 10:06:34;;;;;;;3.53;2.85;;;;;;;20.89;65.28;101388.13;7396629;19;20007;-63
2022/07/12 10:09:06;;;;;;;2.58;1.95;;;;;;;21.03;65.28;101384.53;7401651;19;20123;-62
2022/07/12 10:22:35;;;;;;;4.07;1.48;;;;;;;21.58;63.33;101394.22;7396379;19;20019;-62
2022/07/12 10:25:03;;;;;;;4.93;1.98;;;;;;;21.59;62.95;101386.56;7396860;19;20018;-63
2022/07/12 10:31:38;;;;;;;4.82;1.70;;;;;;;21.65;63.33;101379.31;7399851;19;20010;-62
2022/07/12 10:35:01;;;;;;;2.35;1.88;;;;;;;21.69;62.89;101385.75;7398546;19;20364;-62
2022/07/12 10:37:29;;;;;;;3.38;1.75;;;;;;;21.76;62.98;101378.06;7397234;19;20019;-62
2022/07/12 10:40:20;;;;;;;4.80;1.58;;;;;;;21.78;63.26;101378.50;7402956;19;20007;-62
2022/07/12 10:43:00;;;;;;;3.07;1.87;;;;;;;21.83;63.38;101386.53;7399826;19;20010;-62
2022/07/12 10:49:25;;;;;;;2.45;1.70;;;;;;;22.01;62.99;101392.16;7400166;19;20476;-62
2022/07/12 10:52:11;;;;;;;4.95;1.88;;;;;;;22.15;63.22;101386.47;7398704;19;20484;-62
2022/07/12 10:55:13;;;;;;;2.00;1.40;;;;;;;22.36;63.11;101386.38;7398053;19;20479;-62
2022/07/12 10:57:46;;;;;;;7.80;2.28;;;;;;;22.61;62.87;101379.81;7397529;19;20023;-62
2022/07/12 11:00:14;;;;;;;3.83;1.48;;;;;;;22.78;62.16;101378.91;7403157;19;20006;-62
2022/07/12 11:02:43;;;;;;;3.15;1.60;;;;;;;22.99;61.89;101381.59;7396332;19;20835;-62
2022/07/12 11:05:11;;;;;;;2.67;1.65;;;;;;;23.14;61.29;101382.28;7398327;19;20034;-61
2022/07/12 11:07:40;;;;;;;2.20;1.50;;;;;;;23.25;60.96;101394.28;7402037;19;20010;-62
2022/07/12 11:10:11;;;;;;;4.32;2.03;;;;;;;23.30;60.75;101388.22;7399632;19;20014;-61
2022/07/12 11:12:39;;;;;;;2.13;1.92;;;;;;;23.42;60.59;101385.72;7401802;19;20006;-61
2022/07/12 11:15:27;;;;;;;2.35;1.70;;;;;;;23.57;60.71;101384.34;7401996;19;20010;-62
2022/07/12 11:18:28;;;;;;;6.10;1.80;;;;;;;23.75;58.76;101380.56;7402926;19;20013;-61
2022/07/12 11:21:16;;;;;;;3.05;1.17;;;;;;;23.93;58.86;101378.31;7399106;19;20014;-62
2022/07/12 11:24:19;;;;;;;2.55;1.60;;;;;;;24.10;57.43;101368.84;7399452;19;20464;-59
2022/07/12 11:34:37;;;;;;;2.85;1.17;;;;;;;24.99;56.85;101374.13;7397685;19;20018;-60
2022/07/12 11:37:25;;;;;;;2.05;1.20;;;;;;;25.06;55.93;101366.31;7400484;19;20495;-58
2022/07/12 11:46:52;;;;;;;1.25;1.15;;;;;;;24.57;54.58;101373.47;7392310;19;20014;-60
2022/07/12 11:56:03;;;;;;;1.17;1.17;;;;;;;24.77;53.91;101374.41;7394427;19;20333;-58
2022/07/12 12:05:28;;;;;;;1.45;1.05;;;;;;;24.68;53.84;101376.97;7398206;19;20535;-60
2022/07/12 12:15:31;;;;;;;1.30;1.20;;;;;;;25.13;53.60;101374.69;7399067;19;20015;-59
2022/07/12 12:18:03;;;;;;;2.25;1.20;;;;;;;25.16;54.01;101379.50;7394882;19;20025;-60
2022/07/12 12:21:15;;;;;;;1.70;1.10;;;;;;;25.26;52.82;101366.38;7397064;19;20011;-60
2022/07/12 12:24:10;;;;;;;3.80;1.30;;;;;;;25.47;53.33;101377.34;7396151;19;20022;-60
2022/07/12 12:26:38;;;;;;;2.60;1.05;;;;;;;25.78;53.38;101381.66;7396422;19;20011;-59
2022/07/12 12:29:45;;;;;;;2.03;1.00;;;;;;;26.00;51.62;101377.16;7397727;19;20029;-59
2022/07/12 12:36:36;;;;;;;2.85;1.17;;;;;;;26.17;50.99;101368.75;7400536;19;20090;-59
2022/07/12 12:39:06;;;;;;;2.45;1.23;;;;;;;26.22;51.88;101376.75;7399455;19;20018;-59
2022/07/12 12:41:41;;;;;;;2.33;1.05;;;;;;;26.36;50.45;101373.63;7399554;19;20006;-59
2022/07/12 12:51:56;;;;;;;1.98;0.90;;;;;;;26.39;50.17;101375.59;7395867;19;20018;-59
2022/07/12 12:54:45;;;;;;;2.28;1.10;;;;;;;26.34;50.60;101374.06;7396281;19;20333;-59
2022/07/12 12:57:32;;;;;;;4.05;1.73;;;;;;;26.30;50.63;101370.50;7397466;19;20022;-59
2022/07/12 13:00:20;;;;;;;2.42;1.30;;;;;;;26.18;50.09;101370.38;7395827;19;20043;-59
2022/07/12 13:03:10;;;;;;;1.88;1.00;;;;;;;26.12;50.66;101372.88;7397482;19;20498;-59
2022/07/12 13:05:58;;;;;;;2.45;0.82;;;;;;;26.25;50.30;101365.34;7395413;19;20362;-59
2022/07/12 13:08:46;;;;;;;2.05;1.10;;;;;;;26.36;50.11;101371.59;7395077;19;20017;-58
2022/07/12 13:11:34;;;;;;;1.52;1.15;;;;;;;26.40;49.80;101368.66;7397375;19;20025;-59
2022/07/12 13:14:22;;;;;;;3.08;0.75;;;;;;;26.49;49.57;101369.69;7401755;19;20007;-61
2022/07/12 13:17:10;;;;;;;1.30;0.90;;;;;;;26.33;49.89;101363.16;7405224;19;20044;-60
2022/07/12 13:23:21;;;;;;;2.08;0.98;;;;;;;26.07;49.32;101369.75;7400116;19;20019;-60
2022/07/12 13:29:49;;;;;;;1.30;1.20;;;;;;;25.81;49.44;101358.09;7397522;19;20022;-59
2022/07/12 13:32:16;;;;;;;1.17;0.93;;;;;;;25.70;50.20;101351.84;7403116;19;20014;-60
2022/07/12 13:34:47;;;;;;;1.35;1.08;;;;;;;25.71;50.00;101344.09;7402465;19;20379;-60
2022/07/12 13:37:15;;;;;;;3.22;1.08;;;;;;;25.66;50.01;101338.94;7399141;19;20014;-60
2022/07/12 13:42:29;;;;;;;4.30;1.35;;;;;;;25.66;50.55;101339.75;7402055;19;20479;-59
2022/07/12 13:44:56;;;;;;;8.40;1.85;;;;;;;25.76;49.95;101350.06;7396464;19;20025;-60
2022/07/12 13:47:24;;;;;;;1.33;1.10;;;;;;;25.80;49.96;101352.84;7403200;19;20010;-59
2022/07/12 13:49:51;;;;;;;1.88;0.95;;;;;;;25.84;50.15;101350.75;7399384;19;20015;-60
2022/07/12 13:52:24;;;;;;;1.05;0.95;;;;;;;25.94;50.16;101356.22;7399296;19;20015;-61
2022/07/12 13:54:51;;;;;;;1.80;0.80;;;;;;;26.03;49.68;101361.28;7405346;19;20013;-59
2022/07/12 13:57:19;;;;;;;2.17;1.30;;;;;;;26.02;49.81;101363.38;7396005;19;20039;-60
2022/07/12 13:59:46;;;;;;;3.13;1.30;;;;;;;26.05;49.52;101364.53;7400299;19;20040;-59
2022/07/12 14:02:14;;;;;;;1.83;1.10;;;;;;;26.06;49.18;101368.94;7400629;19;20018;-59
2022/07/12 14:04:42;;;;;;;2.15;1.08;;;;;;;26.06;49.91;101368.94;7399381;19;20056;-59
2022/07/12 14:07:10;;;;;;;2.08;0.80;;;;;;;25.94;49.57;101372.44;7400930;19;20074;-54
2022/07/12 14:09:37;;;;;;;2.95;1.73;;;;;;;25.89;49.83;101370.13;7392565;19;20014;-59
2022/07/12 14:12:08;;;;;;;1.30;0.98;;;;;;;25.78;49.83;101364.66;7398902;19;20015;-59
2022/07/12 14:17:22;;;;;;;1.45;0.60;;;;;;;25.69;50.07;101361.56;7399258;19;20010;-60
2022/07/12 14:19:50;;;;;;;2.88;0.85;;;;;;;25.65;50.40;101360.84;7404981;19;20027;-59
2022/07/12 14:22:18;;;;;;;6.10;1.48;;;;;;;25.55;50.25;101361.81;7398206;19;20473;-58
2022/07/12 14:24:45;;;;;;;4.40;0.98;;;;;;;25.45;50.32;101359.97;7402899;19;20108;-59
2022/07/12 14:27:13;;;;;;;2.05;1.02;;;;;;;25.42;50.43;101357.97;7400747;19;20047;-59
2022/07/12 14:29:40;;;;;;;4.53;1.35;;;;;;;25.35;50.60;101358.94;7399496;19;20015;-59
2022/07/12 14:32:08;;;;;;;1.50;0.98;;;;;;;25.32;51.06;101353.31;7400504;19;20034;-59
2022/07/12 14:34:38;;;;;;;4.15;1.23;;;;;;;25.31;50.86;101357.41;7399615;19;20011;-58
2022/07/12 14:37:06;;;;;;;1.60;0.98;;;;;;;25.41;50.86;101356.41;7400059;19;20010;-57
2022/07/12 14:39:34;;;;;;;1.30;0.98;;;;;;;25.36;50.90;101352.00;7403055;19;20483;-58
2022/07/12 14:42:01;;;;;;;1.83;0.82;;;;;;;25.36;50.70;101348.41;7397961;19;20015;-59
2022/07/12 14:44:29;;;;;;;2.55;0.85;;;;;;;25.37;50.88;101345.13;7399632;19;20017;-58
2022/07/12 14:46:56;;;;;;;2.90;1.25;;;;;;;25.31;50.96;101351.72;7396073;19;20014;-58
2022/07/12 14:50:05;;;;;;;3.28;1.00;;;;;;;25.22;51.40;101346.59;7400383;19;20428;-60
2022/07/12 14:52:33;;;;;;;2.78;1.05;;;;;;;25.28;51.33;101346.91;7398126;19;20011;-58
2022/07/12 14:58:31;;;;;;;3.72;1.00;;;;;;;25.33;51.48;101366.25;7398557;19;20472;-58
2022/07/12 15:00:59;;;;;;;2.33;1.27;;;;;;;25.19;51.30;101355.97;7399538;19;20453;-59
2022/07/12 15:07:33;;;;;;;2.20;1.23;;;;;;;24.88;52.17;101359.31;7394585;19;20011;-57
2022/07/12 15:10:01;;;;;;;1.88;0.95;;;;;;;24.75;52.11;101365.53;7401538;19;20007;-58
2022/07/12 15:12:28;;;;;;;2.15;1.35;;;;;;;24.69;52.24;101372.09;7401570;19;20006;-59
2022/07/12 15:14:56;;;;;;;2.55;1.42;;;;;;;24.66;52.60;101373.75;7399915;19;20007;-58
2022/07/12 15:17:25;;;;;;;3.28;1.00;;;;;;;24.59;52.87;101368.22;7399996;19;20007;-59
2022/07/12 15:19:53;;;;;;;2.15;0.98;;;;;;;24.51;53.04;101371.56;7401277;19;20034;-58
2022/07/12 15:22:21;;;;;;;7.10;1.55;;;;;;;24.49;53.38;101383.28;7400032;19;20044;-59
2022/07/12 15:24:48;;;;;;;3.88;1.67;;;;;;;24.44;53.19;101385.78;7400990;19;20014;-59
2022/07/12 15:27:40;;;;;;;1.55;1.20;;;;;;;24.32;53.69;101383.53;7400562;19;20006;-59
2022/07/12 15:30:08;;;;;;;0.98;0.90;;;;;;;24.29;53.54;101379.53;7398079;19;20010;-57
2022/07/12 15:33:19;;;;;;;3.85;1.10;;;;;;;24.26;54.28;101371.88;7398154;19;20003;-58
2022/07/12 15:49:27;;;;;;;5.55;2.30;;;;;;;24.52;55.27;101379.63;7397044;19;20006;-59
2022/07/12 15:54:42;;;;;;;2.28;1.40;;;;;;;24.86;54.69;101382.38;7397155;19;20018;-59
2022/07/12 15:57:10;;;;;;;3.28;1.40;;;;;;;25.05;54.62;101383.72;7398125;19;20007;-59
2022/07/12 15:59:37;;;;;;;2.63;1.38;;;;;;;25.22;54.22;101374.13;7400928;19;20011;-59
2022/07/12 16:02:05;;;;;;;3.38;1.92;;;;;;;25.56;54.04;101379.66;7397367;19;20010;-59
2022/07/12 16:04:34;;;;;;;4.85;1.83;;;;;;;25.92;53.37;101384.22;7399552;19;20010;-58
2022/07/12 16:07:02;;;;;;;5.68;1.70;;;;;;;25.97;53.31;101382.94;7393055;19;20010;-58
2022/07/12 16:09:31;;;;;;;4.32;1.80;;;;;;;25.86;52.93;101373.81;7397336;19;20007;-59
2022/07/12 16:11:59;;;;;;;3.90;1.65;;;;;;;25.88;52.81;101383.50;7394940;19;20553;-58
2022/07/12 16:14:28;;;;;;;1.52;1.40;;;;;;;25.77;52.71;101380.06;7384135;19;20023;-61
2022/07/12 16:16:56;;;;;;;4.07;1.77;;;;;;;25.67;52.89;101375.38;7396379;19;20025;-60
2022/07/12 16:19:27;;;;;;;2.60;1.60;;;;;;;25.75;53.24;101371.19;7394752;19;20418;-58
2022/07/12 16:21:54;;;;;;;3.55;1.50;;;;;;;25.81;53.00;101395.00;7398610;19;20014;-58